createdAt,value
2023-05-21T00:01:06.552Z,17.98
2023-05-21T00:03:36.231Z,21.58
2023-05-21T00:06:09.454Z,20.50
2023-05-21T00:09:04.706Z,17.95
2023-05-21T00:11:40.822Z,20.58
2023-05-21T00:14:27.916Z,19.00
2023-05-21T00:19:39.996Z,19.38
2023-05-21T00:22:10.519Z,19.92
2023-05-21T00:24:39.014Z,17.83
2023-05-21T00:27:12.545Z,24.27
2023-05-21T00:29:44.998Z,21.25
2023-05-21T00:32:14.684Z,19.63
2023-05-21T00:34:44.396Z,24.35
2023-05-21T00:37:15.322Z,21.17
2023-05-21T00:39:43.894Z,21.13
2023-05-21T00:42:18.349Z,22.17
2023-05-21T00:44:48.536Z,23.85
2023-05-21T00:47:18.449Z,20.10
2023-05-21T00:49:48.390Z,22.65
2023-05-21T00:52:20.449Z,19.33
2023-05-21T00:54:49.400Z,18.20
2023-05-21T00:57:21.309Z,22.20
2023-05-21T00:59:51.888Z,18.65
2023-05-21T01:02:24.350Z,19.85
2023-05-21T01:04:53.642Z,22.25
2023-05-21T01:07:22.311Z,19.30
2023-05-21T01:09:50.945Z,19.35
2023-05-21T01:12:22.407Z,20.23
2023-05-21T01:14:52.509Z,24.55
2023-05-21T01:17:24.534Z,19.30
2023-05-21T01:19:54.780Z,17.52
2023-05-21T01:22:24.966Z,19.27
2023-05-21T01:24:55.756Z,20.90
2023-05-21T01:27:24.712Z,20.45
2023-05-21T01:29:53.509Z,21.13
2023-05-21T01:32:28.402Z,20.90
2023-05-21T01:35:01.888Z,19.10
2023-05-21T01:37:33.060Z,17.70
2023-05-21T01:40:07.475Z,19.33
2023-05-21T01:42:40.152Z,20.03
2023-05-21T01:45:09.801Z,19.20
2023-05-21T01:47:38.820Z,20.10
2023-05-21T01:50:07.997Z,19.27
2023-05-21T01:52:36.830Z,18.25
2023-05-21T01:55:07.117Z,18.60
2023-05-21T01:57:35.780Z,17.97
2023-05-21T02:00:06.099Z,20.63
2023-05-21T02:02:44.259Z,17.87
2023-05-21T02:05:16.059Z,20.70
2023-05-21T02:07:45.545Z,22.25
2023-05-21T02:10:15.963Z,21.70
2023-05-21T02:12:46.123Z,16.07
2023-05-21T02:15:18.256Z,17.60
2023-05-21T02:17:47.113Z,21.67
2023-05-21T02:20:15.829Z,21.80
2023-05-21T02:22:45.269Z,20.17
2023-05-21T02:25:15.895Z,19.70
2023-05-21T02:27:46.726Z,21.80
2023-05-21T02:30:16.059Z,19.70
2023-05-21T02:32:45.086Z,21.97
2023-05-21T02:35:14.537Z,21.40
2023-05-21T02:37:44.180Z,17.67
2023-05-21T02:40:15.891Z,24.43
2023-05-21T02:42:44.510Z,18.63
2023-05-21T02:45:18.084Z,17.38
2023-05-21T02:47:46.675Z,18.47
2023-05-21T02:50:19.040Z,18.87
2023-05-21T02:52:56.934Z,23.23
2023-05-21T02:55:26.812Z,23.03
2023-05-21T02:57:55.516Z,21.97
2023-05-21T03:00:24.097Z,21.83
2023-05-21T03:02:52.740Z,19.83
2023-05-21T03:05:21.951Z,22.37
2023-05-21T03:07:51.509Z,22.43
2023-05-21T03:10:20.114Z,21.50
2023-05-21T03:12:53.825Z,21.83
2023-05-21T03:15:24.010Z,22.40
2023-05-21T03:17:54.198Z,23.13
2023-05-21T03:20:22.995Z,22.87
2023-05-21T03:22:53.087Z,23.37
2023-05-21T03:25:25.253Z,19.77
2023-05-21T03:27:56.960Z,20.77
2023-05-21T03:30:55.062Z,20.73
2023-05-21T03:33:42.030Z,23.93
2023-05-21T03:36:21.721Z,19.47
2023-05-21T03:38:50.203Z,19.47
2023-05-21T03:41:18.779Z,18.70
2023-05-21T03:43:53.742Z,20.03
2023-05-21T03:46:26.312Z,17.60
2023-05-21T03:48:58.224Z,21.50
2023-05-21T03:51:28.006Z,18.40
2023-05-21T03:53:57.122Z,21.23
2023-05-21T03:56:26.601Z,20.47
2023-05-21T03:58:56.598Z,20.93
2023-05-21T04:01:28.458Z,21.77
2023-05-21T04:03:58.431Z,22.97
2023-05-21T04:06:30.256Z,20.80
2023-05-21T04:08:58.990Z,20.50
2023-05-21T04:11:28.279Z,18.87
2023-05-21T04:13:59.126Z,18.43
2023-05-21T04:16:27.733Z,17.83
2023-05-21T04:18:56.511Z,20.10
2023-05-21T04:21:29.617Z,18.63
2023-05-21T04:24:00.924Z,20.43
2023-05-21T04:26:53.372Z,20.60
2023-05-21T04:29:23.439Z,19.40
2023-05-21T04:31:52.218Z,19.10
2023-05-21T04:34:22.896Z,18.47
2023-05-21T04:36:52.074Z,19.27
2023-05-21T04:39:20.586Z,16.33
2023-05-21T04:41:50.850Z,17.37
2023-05-21T04:44:20.630Z,16.87
2023-05-21T04:46:50.907Z,16.50
2023-05-21T04:49:21.631Z,16.00
2023-05-21T04:51:53.270Z,14.13
2023-05-21T04:54:22.163Z,14.77
2023-05-21T04:56:52.727Z,14.97
2023-05-21T04:59:22.950Z,16.03
2023-05-21T05:01:55.183Z,15.60
2023-05-21T05:04:24.042Z,14.70
2023-05-21T05:06:52.799Z,16.03
2023-05-21T05:09:24.151Z,19.47
2023-05-21T05:11:53.018Z,15.90
2023-05-21T05:14:21.568Z,17.27
2023-05-21T05:16:50.191Z,16.53
2023-05-21T05:19:20.574Z,15.43
2023-05-21T05:21:50.501Z,14.40
2023-05-21T05:24:19.961Z,15.43
2023-05-21T05:26:48.811Z,14.97
2023-05-21T05:29:17.692Z,20.00
2023-05-21T05:31:46.450Z,19.67
2023-05-21T05:34:17.103Z,15.97
2023-05-21T05:36:47.075Z,17.10
2023-05-21T05:39:15.749Z,15.87
2023-05-21T05:41:44.444Z,16.63
2023-05-21T05:44:13.278Z,16.23
2023-05-21T05:46:42.300Z,16.67
2023-05-21T05:49:11.128Z,17.37
2023-05-21T05:51:41.538Z,15.63
2023-05-21T05:54:11.557Z,15.67
2023-05-21T05:56:40.059Z,15.57
2023-05-21T05:59:08.659Z,16.97
2023-05-21T06:01:40.168Z,18.57
2023-05-21T06:04:09.195Z,13.43
2023-05-21T06:06:38.872Z,15.87
2023-05-21T06:09:08.026Z,14.90
2023-05-21T06:11:38.195Z,17.73
2023-05-21T06:14:06.872Z,15.13
2023-05-21T06:16:35.512Z,15.30
2023-05-21T06:19:04.582Z,16.03
2023-05-21T06:21:34.410Z,15.65
2023-05-21T06:24:11.594Z,13.47
2023-05-21T06:27:04.978Z,14.63
2023-05-21T06:29:36.307Z,14.95
2023-05-21T06:32:06.202Z,14.95
2023-05-21T06:34:34.789Z,13.30
2023-05-21T06:37:03.379Z,13.60
2023-05-21T06:39:31.942Z,11.70
2023-05-21T06:42:01.038Z,13.65
2023-05-21T06:44:56.861Z,15.13
2023-05-21T06:47:32.947Z,15.20
2023-05-21T06:50:01.657Z,15.02
2023-05-21T06:52:31.823Z,15.20
2023-05-21T06:55:06.417Z,14.23
2023-05-21T06:57:54.916Z,14.07
2023-05-21T07:00:25.202Z,13.07
2023-05-21T07:02:57.454Z,13.63
2023-05-21T07:05:27.303Z,13.00
2023-05-21T07:07:56.875Z,11.65
2023-05-21T07:10:34.474Z,12.35
2023-05-21T07:24:28.700Z,11.93
2023-05-21T07:26:57.367Z,13.48
2023-05-21T07:29:27.958Z,11.30
2023-05-21T07:32:03.120Z,9.93
2023-05-21T07:34:40.083Z,11.00
2023-05-21T07:37:09.003Z,12.88
2023-05-21T07:39:39.020Z,9.77
2023-05-21T07:42:12.953Z,10.55
2023-05-21T07:44:42.884Z,9.45
2023-05-21T07:47:13.180Z,11.95
2023-05-21T07:49:41.805Z,9.32
2023-05-21T07:52:10.846Z,12.52
2023-05-21T07:54:41.029Z,9.55
2023-05-21T07:57:10.242Z,11.80
2023-05-21T08:00:08.661Z,11.25
2023-05-21T08:02:43.983Z,11.73
2023-05-21T08:05:16.620Z,9.13
2023-05-21T08:07:46.332Z,11.23
2023-05-21T08:10:18.555Z,9.88
2023-05-21T08:12:51.285Z,8.80
2023-05-21T08:15:20.569Z,8.60
2023-05-21T08:17:49.760Z,10.38
2023-05-21T08:20:23.890Z,11.63
2023-05-21T08:22:53.533Z,9.88
2023-05-21T08:26:01.571Z,9.38
2023-05-21T08:29:01.402Z,9.45
2023-05-21T08:31:32.679Z,11.40
2023-05-21T08:34:02.323Z,11.75
2023-05-21T08:39:51.679Z,9.20
2023-05-21T08:43:06.023Z,11.20
2023-05-21T08:45:44.316Z,9.52
2023-05-21T08:48:13.917Z,9.80
2023-05-21T08:50:43.085Z,10.75
2023-05-21T08:53:27.135Z,8.63
2023-05-21T08:55:58.343Z,9.25
2023-05-21T08:58:51.694Z,10.27
2023-05-21T09:01:27.352Z,10.15
2023-05-21T09:04:19.770Z,10.43
2023-05-21T09:06:55.002Z,9.57
2023-05-21T09:09:41.704Z,11.75
2023-05-21T09:12:10.358Z,10.40
2023-05-21T09:14:45.620Z,12.23
2023-05-21T09:18:08.502Z,9.35
2023-05-21T09:21:23.301Z,12.57
2023-05-21T09:23:57.113Z,9.20
2023-05-21T09:26:26.588Z,12.50
2023-05-21T09:29:00.245Z,9.13
2023-05-21T09:31:29.359Z,9.55
2023-05-21T09:34:27.244Z,8.95
2023-05-21T09:37:06.524Z,9.48
2023-05-21T09:39:37.830Z,10.43
2023-05-21T09:42:06.508Z,12.43
2023-05-21T09:44:36.630Z,10.52
2023-05-21T09:47:05.907Z,8.93
2023-05-21T09:49:34.477Z,8.32
2023-05-21T09:52:05.897Z,9.73
2023-05-21T09:54:36.500Z,10.73
2023-05-21T09:57:08.382Z,10.15
2023-05-21T09:59:41.183Z,11.30
2023-05-21T10:02:18.548Z,11.73
2023-05-21T10:04:50.392Z,9.27
2023-05-21T10:07:26.268Z,8.27
2023-05-21T10:10:05.232Z,14.23
2023-05-21T10:12:35.592Z,8.45
2023-05-21T10:15:25.723Z,9.20
2023-05-21T10:17:54.744Z,9.13
2023-05-21T10:20:24.204Z,9.60
2023-05-21T10:22:54.872Z,10.38
2023-05-21T10:25:23.873Z,11.13
2023-05-21T10:27:53.985Z,8.35
2023-05-21T10:30:29.741Z,9.02
2023-05-21T10:32:58.835Z,9.90
2023-05-21T10:35:28.086Z,10.68
2023-05-21T10:38:06.233Z,10.48
2023-05-21T10:40:42.960Z,7.57
2023-05-21T10:43:27.979Z,12.18
2023-05-21T10:46:07.754Z,9.85
2023-05-21T10:48:43.481Z,7.60
2023-05-21T10:51:21.225Z,10.25
2023-05-21T10:54:07.678Z,8.85
2023-05-21T10:56:41.660Z,10.10
2023-05-21T10:59:22.390Z,9.10
2023-05-21T11:01:53.160Z,10.30
2023-05-21T11:04:24.166Z,8.32
2023-05-21T11:06:55.088Z,8.98
2023-05-21T11:09:23.697Z,11.05
2023-05-21T11:11:54.387Z,8.48
2023-05-21T11:14:39.681Z,10.63
2023-05-21T11:17:13.473Z,11.43
2023-05-21T11:19:43.877Z,10.27
2023-05-21T11:22:22.797Z,8.05
2023-05-21T11:24:52.311Z,11.45
2023-05-21T11:27:38.324Z,10.65
2023-05-21T11:30:08.727Z,7.70
2023-05-21T11:32:41.278Z,9.98
2023-05-21T11:35:16.151Z,9.55
2023-05-21T11:37:46.581Z,7.88
2023-05-21T11:40:19.540Z,9.70
2023-05-21T11:42:52.968Z,10.68
2023-05-21T11:45:21.839Z,9.80
2023-05-21T11:47:55.305Z,12.57
2023-05-21T11:50:30.983Z,9.35
2023-05-21T11:53:03.674Z,11.13
2023-05-21T11:55:33.200Z,9.40
2023-05-21T11:58:03.752Z,8.43
2023-05-21T12:00:34.479Z,10.35
2023-05-21T12:03:03.357Z,11.60
2023-05-21T12:05:32.910Z,11.32
2023-05-21T12:08:02.234Z,9.13
2023-05-21T12:10:30.811Z,8.68
2023-05-21T12:12:59.620Z,11.65
2023-05-21T12:15:29.909Z,12.00
2023-05-21T12:17:58.590Z,11.20
2023-05-21T12:20:30.577Z,11.57
2023-05-21T12:23:00.778Z,10.80
2023-05-21T12:25:30.519Z,9.63
2023-05-21T12:28:01.446Z,10.23
2023-05-21T12:30:33.353Z,9.68
2023-05-21T12:33:12.335Z,11.88
2023-05-21T12:35:40.982Z,10.75
2023-05-21T12:38:09.828Z,10.30
2023-05-21T12:40:39.937Z,10.23
2023-05-21T12:43:14.162Z,9.63
2023-05-21T12:45:47.487Z,9.43
2023-05-21T12:48:16.918Z,10.38
2023-05-21T12:50:45.772Z,9.77
2023-05-21T12:53:14.392Z,9.70
2023-05-21T12:55:44.283Z,11.50
2023-05-21T12:58:15.504Z,11.38
2023-05-21T13:00:46.035Z,9.70
2023-05-21T13:03:15.014Z,8.98
2023-05-21T13:05:43.649Z,8.55
2023-05-21T13:08:14.205Z,8.15
2023-05-21T13:10:43.798Z,9.38
2023-05-21T13:13:12.230Z,8.30
2023-05-21T13:15:41.097Z,8.55
2023-05-21T13:18:12.358Z,7.63
2023-05-21T13:20:40.980Z,9.13
2023-05-21T13:23:11.425Z,10.23
2023-05-21T13:25:40.570Z,10.43
2023-05-21T13:28:15.132Z,7.63
2023-05-21T13:30:46.295Z,8.63
2023-05-21T13:33:16.860Z,8.35
2023-05-21T13:35:54.944Z,10.05
2023-05-21T13:38:23.433Z,7.20
2023-05-21T13:40:51.893Z,11.68
2023-05-21T13:43:20.349Z,7.28
2023-05-21T13:45:49.977Z,7.05
2023-05-21T13:48:20.026Z,8.55
2023-05-21T13:50:48.795Z,7.95
2023-05-21T13:53:17.737Z,7.82
2023-05-21T13:55:46.218Z,7.55
2023-05-21T13:58:14.675Z,8.85
2023-05-21T14:00:47.398Z,7.72
2023-05-21T14:03:16.036Z,7.55
2023-05-21T14:05:53.617Z,7.70
2023-05-21T14:08:23.793Z,8.60
2023-05-21T14:10:53.482Z,8.55
2023-05-21T14:13:22.294Z,9.10
2023-05-21T14:15:52.878Z,9.15
2023-05-21T14:18:22.458Z,9.57
2023-05-21T14:20:53.419Z,10.43
2023-05-21T14:23:22.149Z,11.70
2023-05-21T14:25:50.698Z,8.13
2023-05-21T14:28:19.298Z,9.25
2023-05-21T14:30:56.232Z,7.85
2023-05-21T14:33:24.680Z,9.00
2023-05-21T14:36:04.387Z,7.63
2023-05-21T14:38:48.069Z,9.60
2023-05-21T14:41:29.432Z,9.65
2023-05-21T14:44:12.789Z,8.48
2023-05-21T14:46:42.323Z,9.40
2023-05-21T14:49:13.580Z,8.13
2023-05-21T14:51:45.387Z,7.10
2023-05-21T14:54:15.147Z,8.18
2023-05-21T14:56:44.790Z,9.85
2023-05-21T14:59:14.408Z,7.32
2023-05-21T15:01:43.317Z,9.63
2023-05-21T15:04:13.482Z,8.13
2023-05-21T15:06:43.652Z,7.05
2023-05-21T15:09:12.367Z,7.03
2023-05-21T15:11:40.979Z,9.07
2023-05-21T15:14:14.565Z,7.05
2023-05-21T15:16:43.161Z,7.05
2023-05-21T15:19:12.583Z,8.63
2023-05-21T15:21:42.280Z,7.38
2023-05-21T15:24:13.349Z,6.97
2023-05-21T15:26:41.909Z,8.85
2023-05-21T15:29:10.448Z,7.75
2023-05-21T15:31:40.588Z,9.65
2023-05-21T15:34:09.309Z,7.82
2023-05-21T15:36:38.063Z,6.88
2023-05-21T15:39:07.029Z,8.55
2023-05-21T15:41:42.280Z,12.50
2023-05-21T15:44:19.337Z,9.40
2023-05-21T15:47:13.438Z,8.23
2023-05-21T15:50:07.578Z,9.15
2023-05-21T15:52:37.742Z,7.22
2023-05-21T15:55:06.591Z,9.70
2023-05-21T15:57:36.654Z,10.98
2023-05-21T16:00:09.548Z,11.13
2023-05-21T16:02:44.267Z,9.27
2023-05-21T16:05:14.952Z,8.95
2023-05-21T16:07:47.528Z,10.45
2023-05-21T16:10:17.966Z,9.52
2023-05-21T16:12:51.903Z,11.20
2023-05-21T16:15:20.788Z,9.18
2023-05-21T16:17:49.842Z,10.63
2023-05-21T16:24:24.816Z,9.10
2023-05-21T16:26:56.821Z,10.48
2023-05-21T16:29:28.972Z,10.10
2023-05-21T16:31:58.623Z,12.85
2023-05-21T16:38:10.476Z,11.27
2023-05-21T16:40:40.457Z,9.27
2023-05-21T16:43:14.544Z,8.85
2023-05-21T16:48:59.869Z,9.85
2023-05-21T16:51:30.764Z,13.23
2023-05-21T16:53:59.447Z,9.18
2023-05-21T16:56:29.563Z,12.88
2023-05-21T16:58:58.259Z,11.05
2023-05-21T17:01:34.139Z,9.40
2023-05-21T17:04:04.361Z,11.23
2023-05-21T17:06:35.570Z,10.32
2023-05-21T17:09:06.914Z,10.25
2023-05-21T17:11:36.093Z,9.05
2023-05-21T17:14:06.938Z,9.32
2023-05-21T17:16:42.946Z,11.63
2023-05-21T17:19:13.582Z,10.90
2023-05-21T17:21:42.417Z,14.20
2023-05-21T17:24:11.314Z,9.32
2023-05-21T17:29:54.304Z,14.88
2023-05-21T17:32:32.624Z,9.68
2023-05-21T17:35:08.682Z,13.48
2023-05-21T17:37:38.248Z,11.10
2023-05-21T17:40:25.416Z,13.18
2023-05-21T17:43:03.326Z,11.38
2023-05-21T17:45:31.900Z,12.30
2023-05-21T17:48:02.775Z,14.10
2023-05-21T17:50:37.928Z,13.55
2023-05-21T17:53:08.375Z,13.80
2023-05-21T17:55:41.353Z,12.00
2023-05-21T17:58:15.950Z,12.18
2023-05-21T18:00:44.658Z,12.65
2023-05-21T18:03:19.294Z,10.40
2023-05-21T18:05:49.379Z,14.32
2023-05-21T18:08:28.429Z,9.82
2023-05-21T18:11:03.421Z,12.48
2023-05-21T18:13:36.311Z,11.38
2023-05-21T18:16:10.407Z,9.60
2023-05-21T18:19:07.702Z,12.48
2023-05-21T18:21:40.327Z,8.93
2023-05-21T18:24:11.874Z,12.20
2023-05-21T18:26:43.510Z,11.27
2023-05-21T18:29:15.191Z,10.10
2023-05-21T18:31:45.590Z,11.93
2023-05-21T18:34:15.646Z,13.65
2023-05-21T18:36:45.797Z,12.85
2023-05-21T18:42:25.138Z,10.68
2023-05-21T18:44:53.790Z,11.35
2023-05-21T18:47:59.347Z,13.25
2023-05-21T18:50:34.407Z,13.05
2023-05-21T18:53:04.902Z,11.18
2023-05-21T18:55:33.932Z,11.82
2023-05-21T18:58:02.986Z,13.68
2023-05-21T19:00:46.079Z,13.98
2023-05-21T19:03:14.721Z,10.32
2023-05-21T19:05:43.539Z,11.80
2023-05-21T19:08:44.798Z,16.60
2023-05-21T19:11:13.449Z,12.90
2023-05-21T19:13:43.262Z,9.98
2023-05-21T19:16:12.059Z,12.93
2023-05-21T19:18:43.382Z,13.60
2023-05-21T19:21:14.615Z,12.90
2023-05-21T19:23:52.477Z,13.77
2023-05-21T19:26:23.870Z,15.40
2023-05-21T19:28:54.796Z,15.25
2023-05-21T19:31:25.472Z,13.88
2023-05-21T19:33:54.432Z,10.10
2023-05-21T19:36:23.473Z,10.57
2023-05-21T19:38:54.649Z,14.75
2023-05-21T19:41:23.670Z,11.23
2023-05-21T19:43:53.531Z,13.80
2023-05-21T19:46:22.316Z,12.15
2023-05-21T19:48:51.034Z,13.98
2023-05-21T19:51:19.637Z,12.95
2023-05-21T19:53:48.334Z,12.95
2023-05-21T19:56:21.913Z,13.77
2023-05-21T19:58:51.160Z,12.88
2023-05-21T20:01:20.221Z,13.55
2023-05-21T20:03:49.755Z,13.70
2023-05-21T20:06:20.740Z,14.52
2023-05-21T20:08:54.746Z,12.18
2023-05-21T20:11:25.104Z,13.20
2023-05-21T20:14:08.102Z,14.77
2023-05-21T20:16:37.108Z,15.07
2023-05-21T20:19:05.991Z,16.38
2023-05-21T20:21:34.940Z,13.80
2023-05-21T20:24:04.105Z,11.57
2023-05-21T20:26:35.256Z,12.43
2023-05-21T20:29:03.884Z,12.43
2023-05-21T20:31:32.479Z,16.35
2023-05-21T20:34:01.072Z,14.40
2023-05-21T20:36:34.943Z,15.95
2023-05-21T20:39:03.748Z,17.63
2023-05-21T20:41:38.844Z,14.20
2023-05-21T20:44:07.726Z,17.67
2023-05-21T20:46:38.630Z,13.75
2023-05-21T20:49:07.576Z,14.50
2023-05-21T20:51:36.337Z,12.60
2023-05-21T20:54:05.031Z,15.50
2023-05-21T20:56:42.281Z,14.20
2023-05-21T20:59:13.097Z,16.80
2023-05-21T21:01:42.634Z,15.48
2023-05-21T21:04:11.421Z,13.90
2023-05-21T21:06:40.669Z,14.77
2023-05-21T21:09:10.647Z,13.50
2023-05-21T21:11:39.199Z,15.55
2023-05-21T21:14:08.876Z,14.00
2023-05-21T21:16:40.133Z,13.85
2023-05-21T21:19:08.960Z,15.23
2023-05-21T21:21:37.652Z,18.83
2023-05-21T21:24:08.044Z,16.20
2023-05-21T21:26:36.465Z,14.80
2023-05-21T21:29:05.028Z,21.10
2023-05-21T21:31:34.089Z,14.70
2023-05-21T21:34:04.304Z,14.18
2023-05-21T21:36:32.794Z,16.20
2023-05-21T21:39:01.347Z,14.60
2023-05-21T21:41:30.518Z,13.15
2023-05-21T21:43:59.288Z,16.50
2023-05-21T21:46:27.908Z,14.90
2023-05-21T21:48:56.471Z,13.23
2023-05-21T21:51:26.452Z,12.43
2023-05-21T21:53:55.154Z,13.98
2023-05-21T21:56:23.751Z,14.43
2023-05-21T21:58:52.197Z,17.23
2023-05-21T22:01:21.073Z,15.88
2023-05-21T22:03:49.756Z,13.38
2023-05-21T22:06:18.255Z,13.13
2023-05-21T22:08:48.698Z,14.00
2023-05-21T22:11:18.804Z,12.25
2023-05-21T22:13:47.505Z,12.70
2023-05-21T22:16:16.526Z,14.23
2023-05-21T22:18:46.363Z,13.60
2023-05-21T22:21:18.538Z,14.13
2023-05-21T22:23:48.664Z,13.45
2023-05-21T22:26:17.383Z,13.98
2023-05-21T22:28:47.285Z,14.30
2023-05-21T22:31:16.437Z,13.50
2023-05-21T22:33:45.046Z,12.48
2023-05-21T22:36:13.513Z,15.10
2023-05-21T22:38:43.561Z,12.88
2023-05-21T22:41:13.858Z,12.80
2023-05-21T22:43:42.380Z,15.38
2023-05-21T22:46:10.967Z,15.40
2023-05-21T22:48:41.969Z,13.73
2023-05-21T22:51:11.335Z,14.45
2023-05-21T22:53:39.894Z,12.23
2023-05-21T22:56:08.597Z,12.45
2023-05-21T22:58:40.807Z,12.65
2023-05-21T23:01:09.296Z,14.20
2023-05-21T23:03:37.697Z,12.15
2023-05-21T23:06:06.285Z,14.43
2023-05-21T23:08:34.849Z,13.30
2023-05-21T23:11:03.625Z,12.35
2023-05-21T23:13:32.144Z,15.50
2023-05-21T23:16:02.133Z,18.48
2023-05-21T23:18:30.605Z,13.98
2023-05-21T23:20:59.187Z,16.50
2023-05-21T23:23:54.753Z,15.40
2023-05-21T23:26:25.676Z,15.05
2023-05-21T23:28:54.217Z,14.57
2023-05-21T23:31:24.059Z,15.52
2023-05-21T23:33:52.745Z,14.27
2023-05-21T23:36:21.299Z,16.77
2023-05-21T23:38:50.231Z,13.35
2023-05-21T23:41:18.811Z,16.85
2023-05-21T23:43:47.296Z,14.93
2023-05-21T23:46:15.791Z,14.27
2023-05-21T23:48:46.896Z,16.35
2023-05-21T23:51:15.626Z,18.23
2023-05-21T23:53:44.089Z,15.30
2023-05-21T23:56:12.493Z,17.80
2023-05-21T23:58:41.019Z,16.75
